Ciudad Obregón International Airport
MMCN : now visible

Airfield :











YOU CAN JOIN US ON...

 
LOGIN :

Register | Disclaimer

   EN    FR    IT 

 









Legend :    VFR   Marginal VFR   IFR   Intensive IFR   Very Intensive IFR
Visi :
Ceiling :
>= 8 km
>= 3000ft
5 to 8 km
1000 to 3000 ft
1500m to 5 km
500 to 1000 ft
800 to 1500m
200 to 500 ft
< 800m
< 200 ft
Symbols :   Thunderstorms  Fog  Heavy snow  Heavy precipitations  Wind > 20 kt







- Airport Elevation : 243 ft
- IATA code : CEN


MMCN - Ciudad Obregón International

CURRENT METAR :
  • 202040Z 25008KT 10SM SKC 28/07 A2994 RMK SLP139 HZY

EXPIRED METARs :
  • 201941Z 23007KT 10SM SKC 28/07 A2996 RMK HZY
  • 201840Z 26006KT 10SM SKC 28/05 A2998 RMK HZY

TAF TAF MMCN
Valid from the 20 at 18:00 until the 21 at 18:00 UTC


201638Z 2018/2118 16005KT P6SM SKC
BECMG 2020/2021 23012KT SCT220
FM210200 27005KT P6SM SCT220
BECMG 2105/2106 00000KT
FM211200 32005KT P6SM BKN220
MMFR FIR / North America



MET'MAP, your aeronautical weather chart ! - Copyright ORBIFLY December 2007 - Disclaimer

ORBIFLY MET'MAP TEAM :

Programming & Development : Alexandra Zaïnal
Concept & Development : Baudouin d'Aumeries
Co-Development & Prog : Marc-Olivier Méhu
Technical & hardware support : Manuel Goepfert

Contact : metmap@orbifly.com




SOURCES & CREDITS :

   NOAA       Earth
Advisory